Sunday, July 22, 2018, 12:25 PM EDT
Back to Local

KFIG, Clearfield-lawrence Airport

Location: Clearfield, PA, United States Lat: 41.05
Local Time: 12:25 PM EDT (16:25 GMT) Lon: -78.417
Time Zone: US/Eastern Elev: 1515 ft

Show me the last for .
Show Decoded

2018-07-22 11:54 METAR KFIG 221554Z AUTO VRB05KT 10SM OVC011 19/17 A2983 RMK AO2 SLP097 T01890167
                 =
2018-07-22 11:52 METAR KFIG 221552Z AUTO 20005KT 10SM OVC011 19/17 A2983 RMK AO2 =
2018-07-22 10:54 METAR KFIG 221454Z AUTO VRB03KT 10SM OVC009 18/16 A2983 RMK AO2 CIG 007V011
                 SLP096 T01780161 53020 =
2018-07-22 09:54 METAR KFIG 221354Z AUTO VRB05KT 10SM OVC008 17/16 A2980 RMK AO2 CIG 005V011
                 SLP087 T01670156 =
2018-07-22 09:04 METAR KFIG 221304Z AUTO 18003KT 10SM BKN005 BKN009 OVC017 16/16 A2978 RMK AO2
                 T01610161 =
2018-07-22 08:54 METAR KFIG 221254Z AUTO 18003KT 10SM SCT005 BKN011 OVC017 16/16 A2978 RMK AO2
                 SLP080 T01610156 =
2018-07-22 08:17 METAR KFIG 221217Z AUTO 00000KT 4SM BR OVC005 16/16 A2977 RMK AO2 T01560156 =
2018-07-22 08:05 METAR KFIG 221205Z AUTO 00000KT 2SM BR OVC005 15/15 A2977 RMK AO2 T01500150 =
2018-07-22 07:54 METAR KFIG 221154Z AUTO 20004KT 1 1/2SM BR OVC003 16/15 A2977 RMK AO2
                 RAB08E30B34E53 SLP076 P0001 60073 70116 T01560150 10156 20144 53015 =
2018-07-22 07:38 METAR KFIG 221138Z AUTO 20003KT 1 1/4SM -RA BR OVC003 15/15 A2977 RMK AO2
                 RAB08E30B34 P0000 T01500150 =
2018-07-22 07:31 METAR KFIG 221131Z AUTO 20004KT 2SM BR OVC003 15/15 A2977 RMK AO2 RAB08E30 P0000
                 T01500150 =
2018-07-22 07:22 METAR KFIG 221122Z AUTO 22003KT 1SM -RA BR BKN003 OVC009 15/15 A2976 RMK AO2
                 RAB08 P0000 T01500150 =
2018-07-22 07:11 METAR KFIG 221111Z AUTO 00000KT 1/4SM -RA FG BKN003 OVC012 15/15 A2975 RMK AO2
                 RAB08 P0000 T01500150 =
2018-07-22 07:04 METAR KFIG 221104Z AUTO 18003KT 1 1/2SM BR BKN003 OVC012 16/15 A2975 RMK AO2 VIS
                 1/2V4 T01560150 =
2018-07-22 06:54 METAR KFIG 221054Z AUTO 00000KT 10SM FEW003 OVC012 15/15 A2975 RMK AO2 RAB02E12
                 SLP069 P0000 T01500150 =
2018-07-22 06:07 METAR KFIG 221007Z AUTO 24003KT 10SM -RA BKN014 OVC019 15/15 A2973 RMK AO2 RAB02
                 P0000 T01500150 =
2018-07-22 05:54 METAR KFIG 220954Z AUTO 24004KT 10SM OVC016 15/14 A2973 RMK AO2 RAE51 SLP061
                 P0004 T01500144 =
2018-07-22 05:06 METAR KFIG 220906Z AUTO 19010KT 7SM -RA FEW002 BKN012 OVC100 15/14 A2975 RMK AO2
                 PRESRR P0001 T01500144 =
2018-07-22 04:54 METAR KFIG 220854Z AUTO 00000KT 8SM -RA FEW014 BKN037 OVC100 15/14 A2972 RMK AO2
                 SLP058 P0024 60068 T01500144 56029 =
2018-07-22 03:54 METAR KFIG 220754Z AUTO 01004KT 3SM +RA BR OVC050 14/14 A2973 RMK AO2 SLP061
                 P0029 T01440144 =
2018-07-22 03:40 METAR KFIG 220740Z AUTO 36004KT 3SM +RA BR OVC042 14/14 A2974 RMK AO2 P0021
                 T01440144 =
2018-07-22 03:30 METAR KFIG 220730Z AUTO 36004KT 2SM +RA BR OVC033 14/14 A2975 RMK AO2 P0016
                 T01440144 =
2018-07-22 03:06 METAR KFIG 220706Z AUTO 36004KT 1SM RA BR FEW009 OVC017 15/14 A2976 RMK AO2
                 P0003 T01500144 =
2018-07-22 03:01 METAR KFIG 220701Z AUTO 36004KT 3/4SM RA BR SCT009 OVC013 15/14 A2977 RMK AO2
                 P0002 T01500144 =
2018-07-22 02:54 METAR KFIG 220654Z AUTO 35004KT 1SM RA BR FEW005 BKN009 OVC015 15/14 A2977 RMK
                 AO2 SLP074 P0015 T01500144 =
2018-07-22 02:51 METAR KFIG 220651Z AUTO 36004KT 1 3/4SM RA BR BKN007 OVC015 15/14 A2977 RMK AO2
                 P0014 =
2018-07-22 02:14 METAR KFIG 220614Z AUTO 03004KT 5SM RA BR BKN008 OVC014 15/14 A2980 RMK AO2
                 P0005 T01500144 =
2018-07-22 01:54 METAR KFIG 220554Z AUTO 03004KT 6SM RA BR SCT006 BKN012 OVC017 15/14 A2981 RMK
                 AO2 SLP087 P0017 60037 T01500144 10167 20150 56028 =
2018-07-22 01:15 METAR KFIG 220515Z AUTO 01005KT 3SM RA BR FEW004 BKN008 OVC015 15/14 A2982 RMK
                 AO2 P0008 T01500144 =
2018-07-22 01:08 METAR KFIG 220508Z AUTO 01003KT 2 1/2SM +RA BR FEW004 BKN010 OVC015 15/14 A2983
                 RMK AO2 P0006 T01500144 =
2018-07-22 01:01 METAR KFIG 220501Z AUTO 02003KT 4SM -RA BR BKN007 OVC014 15/14 A2983 RMK AO2
                 P0001 T01500144 =
2018-07-22 00:54 METAR KFIG 220454Z AUTO 01003KT 7SM -RA SCT007 BKN011 OVC014 15/14 A2983 RMK AO2
                 CIG 008V011 SLP096 P0005 T01500144 402280150 =
2018-07-21 23:54 METAR KFIG 220354Z AUTO 06007KT 10SM -RA BKN007 OVC013 15/14 A2986 RMK AO2 CIG
                 004V010 SLP106 P0003 T01500144 =
2018-07-21 22:54 METAR KFIG 220254Z AUTO 05007KT 7SM -RA BKN005 OVC010 15/15 A2990 RMK AO2 SLP117
                 P0005 60012 T01500150 58013 =
2018-07-21 22:01 METAR KFIG 220201Z AUTO 04004KT 8SM -RA BKN005 OVC030 15/14 A2992 RMK AO2 CIG
                 003V008 P0001 T01500144 =
2018-07-21 21:54 METAR KFIG 220154Z AUTO 05004KT 9SM -RA SCT005 BKN010 OVC030 15/14 A2993 RMK AO2
                 SLP128 P0005 T01500144 =
2018-07-21 21:46 METAR KFIG 220146Z AUTO 03004KT 9SM -RA SCT007 SCT015 OVC030 15/14 A2993 RMK AO2
                 P0005 T01500144 =
2018-07-21 20:54 METAR KFIG 220054Z AUTO 08007KT 10SM -RA BKN008 OVC015 16/15 A2994 RMK AO2 CIG
                 006V011 SLP133 P0002 T01560150 =
2018-07-21 19:54 METAR KFIG 212354Z AUTO 08009KT 10SM -RA BKN007 OVC012 17/16 A2993 RMK AO2 CIG
                 004V009 SLP130 P0002 60006 T01670161 10228 20167 58008 =
2018-07-21 19:31 METAR KFIG 212331Z AUTO 07006KT 10SM -RA BKN009 OVC110 17/16 A2994 RMK AO2 CIG
                 005V015 P0001 T01670161 =
2018-07-21 18:54 METAR KFIG 212254Z AUTO 09009G16KT 10SM -RA FEW011 BKN044 OVC090 17/16 A2995 RMK
                 AO2 SLP137 P0004 T01670156 =
2018-07-21 17:54 METAR KFIG 212154Z AUTO 10009G20KT 10SM -RA FEW014 SCT023 OVC033 18/16 A2996 RMK
                 AO2 RAB39 SLP139 P0000 T01780156 =
2018-07-21 17:08 METAR KFIG 212108Z AUTO 11009KT 10SM BKN022 21/16 A2995 RMK AO2 T02060161 =
2018-07-21 16:54 METAR KFIG 212054Z AUTO 10009G14KT 10SM FEW024 21/16 A2996 RMK AO2 SLP135
                 T02060156 55006 =
2018-07-21 16:38 METAR KFIG 212038Z AUTO 10010G21KT 10SM SCT024 SCT050 21/16 A2995 RMK AO2
                 T02060156 =
2018-07-21 16:03 METAR KFIG 212003Z AUTO 10009G17KT 10SM BKN024 BKN033 OVC047 21/16 A2996 RMK AO2
                 T02060161 =
2018-07-21 15:54 METAR KFIG 211954Z AUTO 10010G16KT 10SM SCT024 OVC045 21/16 A2995 RMK AO2 SLP135
                 T02110161 =
2018-07-21 14:54 METAR KFIG 211854Z AUTO 10009G16KT 10SM FEW023 OVC044 21/16 A2996 RMK AO2 SLP137
                 T02110161 =
2018-07-21 13:54 METAR KFIG 211754Z AUTO 11009KT 10SM FEW028 OVC038 21/16 A2998 RMK AO2 SLP142
                 T02110161 10228 20194 56005 =
2018-07-21 13:19 METAR KFIG 211719Z AUTO 12007KT 10SM FEW027 OVC035 22/16 A2998 RMK AO2 T02170161
                 =
2018-07-21 13:09 METAR KFIG 211709Z AUTO 10SM BKN029 OVC039 22/16 A2998 RMK AO2 T02170161 =
2018-07-21 12:54 METAR KFIG 211654Z AUTO 13006G15KT 10SM FEW025 OVC033 22/16 A2998 RMK AO2 SLP142
                 T02170161 =
2018-07-21 12:49 METAR KFIG 211649Z AUTO 14007G14KT 110V190 10SM OVC030 22/16 A2998 RMK AO2 =

Support USWX by starting your Amazon purchase here.